Aérodrome :
LOGIN :

S'inscrire | Disclaimer

   EN    FR    IT 

 










Légende :    VFR   VFR Marginal   IFR   IFR Intensif   IFR Très Intensif
Visi : 
Plafond : 
>= 8 km
>= 3000ft
5 à 8 km
1000 à 3000 ft
1500m à 5 km
500 à 1000 ft
800 à 1500m
200 à 500 ft
< 800m
< 200 ft
Symboles :   Orages  Brouillard  Fortes neiges  Fortes précipitations  Vent > 20 kt
SIGMETs :   Divers  Orages  Givrage  Turbulence  Onde Orograph.  Cendres Volcan.






- Altitude de l'aérodrome : 2945 ft
- Code IATA : RGS


LEBG - Burgos

DERNIER METAR :
  • 171800Z 05011KT 9999 OVC013 06/05 Q1030

METARs EXPIRÉS :
  • 171730Z 03009KT 9999 BKN014 BKN050 07/05 Q1030
  • 171700Z 03009KT 350V060 9999 SCT017 BKN029 07/05 Q1029
  • 171630Z 02011KT 9999 BKN012 OVC031 07/05 Q1029
  • 171600Z 03010KT 9999 BKN011 OVC018 08/06 Q1029
  • 171530Z 03010KT 360V060 9999 BKN013 08/06 Q1028

TAF TAF LEBG
Valide du 17 à 18h jusqu'au 18 à 03h UTC


171700Z 1718/1803 04010KT 9999 BKN012 OVC030
TEMPO 1721/1724 OVC008



MET'MAP, la Météo Aéronautique d'un coup d'oeil ! - Copyright ORBIFLY Décembre 2007 - Disclaimer

ORBIFLY MET'MAP TEAM :

Programmation & Développement : Alexandra Zaïnal
Sur une idée originale de : Baudouin d'Aumeries
Assistance à la programmation : Marc-Olivier Méhu
Soutien technique & logistique : Manuel Goepfert

Contact : metmap@orbifly.com




SOURCES & CREDITS :

   NOAA